createdAt,value
2019-03-30T00:04:42.109Z,89.03
2019-03-30T00:07:10.521Z,88.49
2019-03-30T00:09:38.966Z,88.27
2019-03-30T00:12:07.431Z,88.52
2019-03-30T00:14:55.042Z,88.52
2019-03-30T00:17:23.511Z,89.66
2019-03-30T00:19:51.938Z,88.70
2019-03-30T00:22:20.385Z,88.75
2019-03-30T00:24:48.900Z,89.74
2019-03-30T00:27:36.650Z,89.55
2019-03-30T00:30:45.027Z,89.38
2019-03-30T00:33:13.456Z,91.48
2019-03-30T00:35:41.887Z,91.44
2019-03-30T00:38:10.406Z,90.43
2019-03-30T00:40:38.850Z,90.69
2019-03-30T00:43:07.312Z,90.31
2019-03-30T00:45:35.773Z,90.57
2019-03-30T00:48:23.521Z,90.63
2019-03-30T00:50:51.989Z,90.23
2019-03-30T00:53:20.420Z,90.69
2019-03-30T00:56:08.198Z,90.75
2019-03-30T00:58:36.623Z,90.86
2019-03-30T01:03:52.615Z,90.42
2019-03-30T01:06:21.035Z,90.77
2019-03-30T01:08:49.540Z,91.03
2019-03-30T01:14:11.713Z,91.10
2019-03-30T01:19:13.908Z,90.68
2019-03-30T01:21:42.326Z,90.12
2019-03-30T01:24:10.750Z,89.98
2019-03-30T01:31:47.676Z,90.59
2019-03-30T01:34:16.100Z,90.99
2019-03-30T01:36:44.560Z,90.26
2019-03-30T01:41:47.379Z,90.34
2019-03-30T01:44:15.842Z,90.75
2019-03-30T01:46:44.300Z,90.93
2019-03-30T01:49:32.044Z,91.62
2019-03-30T01:54:34.849Z,91.13
2019-03-30T01:59:37.009Z,90.95
2019-03-30T02:02:05.617Z,91.56
2019-03-30T02:04:53.370Z,91.49
2019-03-30T02:07:21.811Z,92.61
2019-03-30T02:09:50.256Z,92.10
2019-03-30T02:12:18.681Z,91.44
2019-03-30T02:15:06.329Z,91.55
2019-03-30T02:17:34.748Z,91.60
2019-03-30T02:20:43.135Z,91.63
2019-03-30T02:23:11.841Z,91.59
2019-03-30T02:25:40.432Z,91.65
2019-03-30T02:28:09.537Z,91.29
2019-03-30T02:30:38.229Z,91.46
2019-03-30T02:33:06.720Z,90.55
2019-03-30T02:35:35.325Z,90.72
2019-03-30T02:38:03.814Z,91.79
2019-03-30T02:40:32.244Z,92.48
2019-03-30T02:43:01.125Z,92.67
2019-03-30T02:45:29.621Z,93.31
2019-03-30T02:47:58.244Z,92.66
2019-03-30T02:50:26.678Z,92.76
2019-03-30T02:52:55.101Z,94.59
2019-03-30T02:55:23.530Z,94.87
2019-03-30T02:57:52.024Z,93.22
2019-03-30T03:00:20.536Z,92.63
2019-03-30T03:02:49.130Z,92.40
2019-03-30T03:05:18.021Z,93.15
2019-03-30T03:07:46.512Z,92.47
2019-03-30T03:10:16.744Z,91.95
2019-03-30T03:12:45.192Z,92.31
2019-03-30T03:15:13.855Z,92.28
2019-03-30T03:17:42.296Z,92.09
2019-03-30T03:20:10.980Z,91.55
2019-03-30T03:22:39.399Z,92.46
2019-03-30T03:25:08.068Z,92.35
2019-03-30T03:27:36.512Z,92.61
2019-03-30T03:30:07.092Z,93.28
2019-03-30T03:32:35.506Z,93.35
2019-03-30T03:35:04.534Z,93.72
2019-03-30T03:37:44.551Z,93.49
2019-03-30T03:40:03.307Z,93.62
2019-03-30T03:42:32.113Z,93.81
2019-03-30T03:45:00.744Z,93.42
2019-03-30T03:47:29.131Z,92.95
2019-03-30T03:49:57.581Z,93.83
2019-03-30T03:52:25.999Z,94.37
2019-03-30T03:54:55.470Z,95.10
2019-03-30T03:57:26.301Z,94.26
2019-03-30T03:59:57.407Z,93.55
2019-03-30T04:02:27.812Z,94.76
2019-03-30T04:04:58.040Z,95.37
2019-03-30T04:07:29.518Z,94.75
2019-03-30T04:10:00.690Z,96.28
2019-03-30T04:12:31.778Z,97.02
2019-03-30T04:15:02.805Z,94.76
2019-03-30T04:17:31.884Z,97.03
2019-03-30T04:20:00.655Z,95.98
2019-03-30T04:22:29.211Z,95.97
2019-03-30T04:24:57.812Z,94.43
2019-03-30T04:27:26.307Z,94.46
2019-03-30T04:29:54.719Z,93.50
2019-03-30T04:32:23.140Z,93.37
2019-03-30T04:34:51.668Z,93.72
2019-03-30T04:37:20.099Z,93.39
2019-03-30T04:39:48.521Z,94.71
2019-03-30T04:42:16.994Z,93.88
2019-03-30T04:44:45.424Z,93.29
2019-03-30T04:47:13.849Z,93.57
2019-03-30T04:49:42.414Z,93.77
2019-03-30T04:52:10.842Z,93.66
2019-03-30T04:54:39.332Z,94.78
2019-03-30T04:57:07.779Z,94.06
2019-03-30T04:59:36.223Z,94.67
2019-03-30T05:02:05.015Z,94.99
2019-03-30T05:04:33.463Z,95.03
2019-03-30T05:07:01.893Z,93.96
2019-03-30T05:09:30.338Z,94.53
2019-03-30T05:11:58.854Z,93.96
2019-03-30T05:14:27.298Z,94.21
2019-03-30T05:16:55.709Z,93.74
2019-03-30T05:19:24.164Z,94.27
2019-03-30T05:21:52.589Z,94.50
2019-03-30T05:24:21.021Z,94.08
2019-03-30T05:26:49.809Z,94.51
2019-03-30T05:29:18.238Z,94.42
2019-03-30T05:31:46.656Z,94.56
2019-03-30T05:34:15.140Z,94.28
2019-03-30T05:36:43.765Z,94.02
2019-03-30T05:39:12.262Z,94.65
2019-03-30T05:41:40.749Z,94.13
2019-03-30T05:44:09.163Z,94.01
2019-03-30T05:46:37.582Z,93.85
2019-03-30T05:49:06.051Z,93.81
2019-03-30T05:51:34.482Z,94.69
2019-03-30T05:54:02.909Z,94.64
2019-03-30T05:56:31.381Z,94.77
2019-03-30T05:58:59.805Z,94.67
2019-03-30T06:01:28.290Z,94.13
2019-03-30T06:03:56.751Z,93.75
2019-03-30T06:06:25.160Z,93.29
2019-03-30T06:08:53.747Z,93.03
2019-03-30T06:11:22.212Z,93.35
2019-03-30T06:13:50.736Z,93.35
2019-03-30T06:16:19.337Z,93.51
2019-03-30T06:18:47.887Z,92.98
2019-03-30T06:21:16.317Z,94.32
2019-03-30T06:23:44.744Z,94.44
2019-03-30T06:26:13.876Z,95.01
2019-03-30T06:28:42.287Z,94.01
2019-03-30T06:31:10.789Z,92.92
2019-03-30T06:33:39.250Z,93.07
2019-03-30T06:36:07.684Z,92.11
2019-03-30T06:38:36.113Z,92.05
2019-03-30T06:41:04.917Z,91.07
2019-03-30T06:43:33.346Z,90.90
2019-03-30T06:46:01.840Z,90.65
2019-03-30T06:48:30.426Z,90.53
2019-03-30T06:50:58.853Z,90.26
2019-03-30T06:53:27.286Z,90.52
2019-03-30T06:55:55.744Z,90.01
2019-03-30T06:58:24.171Z,89.97
2019-03-30T07:00:53.112Z,90.41
2019-03-30T07:03:21.928Z,90.91
2019-03-30T07:05:51.326Z,90.90
2019-03-30T07:08:19.758Z,91.51
2019-03-30T07:10:49.051Z,91.07
2019-03-30T07:13:17.825Z,91.63
2019-03-30T07:15:48.097Z,90.38
2019-03-30T07:18:18.299Z,90.23
2019-03-30T07:20:46.837Z,89.34
2019-03-30T07:23:15.289Z,91.31
2019-03-30T07:25:43.816Z,90.67
2019-03-30T07:28:12.316Z,89.96
2019-03-30T07:30:40.755Z,90.32
2019-03-30T07:33:09.224Z,89.09
2019-03-30T07:35:37.649Z,90.02
2019-03-30T07:38:06.081Z,88.42
2019-03-30T07:40:35.029Z,88.97
2019-03-30T07:43:03.622Z,89.22
2019-03-30T07:45:32.074Z,89.14
2019-03-30T07:48:00.531Z,90.03
2019-03-30T07:50:28.980Z,88.09
2019-03-30T07:52:57.451Z,87.78
2019-03-30T07:55:25.952Z,87.85
2019-03-30T07:57:54.394Z,88.45
2019-03-30T08:00:22.818Z,87.55
2019-03-30T08:02:51.488Z,87.06
2019-03-30T08:05:19.992Z,85.79
2019-03-30T08:07:48.497Z,84.47
2019-03-30T08:10:17.488Z,85.49
2019-03-30T08:12:46.079Z,84.38
2019-03-30T08:15:14.961Z,82.76
2019-03-30T08:17:43.884Z,82.15
2019-03-30T08:20:12.755Z,82.00
2019-03-30T08:22:41.248Z,81.65
2019-03-30T08:25:10.037Z,81.64
2019-03-30T08:27:38.487Z,80.89
2019-03-30T08:30:07.854Z,80.88
2019-03-30T08:32:36.314Z,81.51
2019-03-30T08:35:06.387Z,80.51
2019-03-30T08:37:34.820Z,80.26
2019-03-30T08:40:03.619Z,79.84
2019-03-30T08:42:32.114Z,80.12
2019-03-30T08:45:00.657Z,78.75
2019-03-30T08:47:29.215Z,78.72
2019-03-30T08:49:57.642Z,77.45
2019-03-30T08:52:26.114Z,75.89
2019-03-30T08:54:54.570Z,74.26
2019-03-30T08:57:23.002Z,72.93
2019-03-30T08:59:51.449Z,72.59
2019-03-30T09:02:20.092Z,72.39
2019-03-30T09:04:48.527Z,71.82
2019-03-30T09:07:17.125Z,71.76
2019-03-30T09:09:45.594Z,71.89
2019-03-30T09:12:14.035Z,71.50
2019-03-30T09:14:42.470Z,70.98
2019-03-30T09:17:10.942Z,70.72
2019-03-30T09:19:39.487Z,70.28
2019-03-30T09:22:07.917Z,70.07
2019-03-30T09:24:36.379Z,69.91
2019-03-30T09:27:04.813Z,69.37
2019-03-30T09:29:33.260Z,68.22
2019-03-30T09:32:13.788Z,67.78
2019-03-30T09:34:32.337Z,67.00
2019-03-30T09:37:00.778Z,67.25
2019-03-30T09:39:29.810Z,66.36
2019-03-30T09:41:58.340Z,65.64
2019-03-30T09:44:26.774Z,65.24
2019-03-30T09:46:55.252Z,65.49
2019-03-30T09:49:23.690Z,64.54
2019-03-30T09:51:52.128Z,64.04
2019-03-30T09:54:23.799Z,63.61
2019-03-30T09:56:50.955Z,62.86
2019-03-30T09:59:19.390Z,62.41
2019-03-30T10:01:47.854Z,61.73
2019-03-30T10:04:16.293Z,61.85
2019-03-30T10:06:44.766Z,61.80
2019-03-30T10:09:13.383Z,60.29
2019-03-30T10:11:41.819Z,60.61
2019-03-30T10:14:10.296Z,60.06
2019-03-30T10:16:38.767Z,60.34
2019-03-30T10:19:07.205Z,60.13
2019-03-30T10:21:35.641Z,59.43
2019-03-30T10:24:04.242Z,59.53
2019-03-30T10:26:32.713Z,59.15
2019-03-30T10:29:01.166Z,59.33
2019-03-30T10:31:29.628Z,59.49
2019-03-30T10:33:58.063Z,58.87
2019-03-30T10:36:26.544Z,58.40
2019-03-30T10:38:55.012Z,57.91
2019-03-30T10:41:23.518Z,58.48
2019-03-30T10:43:51.945Z,58.52
2019-03-30T10:46:20.493Z,57.63
2019-03-30T10:48:48.926Z,56.80
2019-03-30T10:51:17.372Z,57.46
2019-03-30T10:53:45.847Z,57.57
2019-03-30T10:56:14.283Z,58.09
2019-03-30T10:58:42.718Z,57.16
2019-03-30T11:01:11.221Z,56.78
2019-03-30T11:03:39.634Z,55.75
2019-03-30T11:06:08.075Z,55.36
2019-03-30T11:08:36.554Z,55.09
2019-03-30T11:11:05.138Z,53.79
2019-03-30T11:13:33.578Z,53.94
2019-03-30T11:16:02.033Z,54.12
2019-03-30T11:18:30.475Z,54.11
2019-03-30T11:20:58.982Z,53.92
2019-03-30T11:23:27.452Z,52.80
2019-03-30T11:25:55.959Z,53.53
2019-03-30T11:28:24.395Z,53.06
2019-03-30T11:30:52.871Z,52.17
2019-03-30T11:33:21.309Z,51.97
2019-03-30T11:35:49.745Z,51.87
2019-03-30T11:38:18.209Z,50.96
2019-03-30T11:40:46.785Z,50.36
2019-03-30T11:43:15.218Z,49.30
2019-03-30T11:45:43.689Z,48.93
2019-03-30T11:48:12.125Z,47.50
2019-03-30T11:50:40.562Z,48.66
2019-03-30T11:53:09.054Z,46.89
2019-03-30T11:55:37.490Z,47.04
2019-03-30T11:58:05.922Z,47.05
2019-03-30T12:00:34.431Z,47.67
2019-03-30T12:03:02.844Z,47.02
2019-03-30T12:05:31.276Z,47.26
2019-03-30T12:07:59.747Z,46.47
2019-03-30T12:10:28.180Z,46.65
2019-03-30T12:12:56.689Z,46.79
2019-03-30T12:15:25.173Z,46.30
2019-03-30T12:17:53.611Z,46.36
2019-03-30T12:20:22.051Z,46.34
2019-03-30T12:22:50.512Z,41.08
2019-03-30T12:25:18.970Z,40.90
2019-03-30T12:27:47.394Z,40.81
2019-03-30T12:30:16.225Z,39.62
2019-03-30T12:32:44.651Z,40.25
2019-03-30T12:35:13.220Z,39.33
2019-03-30T12:37:41.685Z,39.12
2019-03-30T12:40:11.558Z,37.83
2019-03-30T12:42:40.054Z,35.06
2019-03-30T12:45:08.862Z,34.42
2019-03-30T12:47:37.363Z,34.66
2019-03-30T12:50:07.129Z,35.02
2019-03-30T12:52:35.644Z,35.13
2019-03-30T12:55:04.452Z,35.28
2019-03-30T12:57:32.875Z,35.22
2019-03-30T13:00:01.739Z,35.83
2019-03-30T13:02:30.333Z,34.34
2019-03-30T13:04:58.775Z,34.98
2019-03-30T13:07:27.224Z,34.37
2019-03-30T13:09:55.722Z,34.81
2019-03-30T13:12:24.224Z,32.62
2019-03-30T13:14:52.684Z,32.49
2019-03-30T13:17:21.111Z,33.46
2019-03-30T13:19:49.548Z,32.68
2019-03-30T13:22:17.996Z,33.21
2019-03-30T13:24:46.424Z,34.14
2019-03-30T13:27:14.928Z,33.93
2019-03-30T13:29:43.379Z,34.37
2019-03-30T13:32:11.803Z,33.70
2019-03-30T13:34:40.248Z,33.92
2019-03-30T13:37:14.245Z,33.24
2019-03-30T13:39:42.667Z,33.49
2019-03-30T13:42:11.132Z,33.99
2019-03-30T13:44:40.501Z,32.80
2019-03-30T13:47:08.928Z,32.66
2019-03-30T13:49:37.422Z,32.67
2019-03-30T13:52:05.894Z,33.48
2019-03-30T13:54:34.389Z,34.10
2019-03-30T13:57:02.848Z,34.44
2019-03-30T13:59:31.377Z,34.15
2019-03-30T14:01:59.803Z,33.83
2019-03-30T14:04:28.309Z,32.60
2019-03-30T14:06:56.783Z,32.98
2019-03-30T14:09:25.209Z,32.45
2019-03-30T14:11:53.635Z,32.26
2019-03-30T14:14:22.114Z,31.78
2019-03-30T14:16:50.764Z,32.04
2019-03-30T14:19:19.161Z,32.65
2019-03-30T14:21:47.681Z,32.44
2019-03-30T14:24:16.127Z,31.60
2019-03-30T14:27:03.817Z,31.84
2019-03-30T14:29:32.239Z,31.46
2019-03-30T14:32:00.670Z,33.00
2019-03-30T14:34:29.133Z,33.06
2019-03-30T14:36:57.619Z,33.34
2019-03-30T14:39:26.052Z,33.22
2019-03-30T14:41:54.511Z,31.75
2019-03-30T14:44:23.012Z,31.54
2019-03-30T14:46:51.468Z,32.02
2019-03-30T14:49:19.951Z,32.54
2019-03-30T14:51:48.382Z,32.67
2019-03-30T14:54:16.810Z,31.54
2019-03-30T14:56:46.366Z,32.46
2019-03-30T14:59:15.600Z,32.31
2019-03-30T15:01:44.114Z,33.19
2019-03-30T15:04:12.667Z,32.51
2019-03-30T15:06:41.088Z,32.10
2019-03-30T15:09:28.877Z,31.79
2019-03-30T15:11:57.307Z,33.17
2019-03-30T15:14:25.741Z,32.30
2019-03-30T15:16:54.246Z,31.69
2019-03-30T15:19:22.672Z,31.36
2019-03-30T15:21:51.105Z,32.34
2019-03-30T15:27:13.839Z,31.87
2019-03-30T15:29:45.401Z,31.68
2019-03-30T15:35:19.309Z,32.56
2019-03-30T15:37:47.738Z,32.78
2019-03-30T15:40:56.118Z,33.72
2019-03-30T15:43:37.464Z,33.61
2019-03-30T15:46:14.406Z,32.96
2019-03-30T15:48:44.128Z,33.31
2019-03-30T15:56:53.092Z,33.23
2019-03-30T15:59:21.536Z,33.47
2019-03-30T16:01:49.964Z,33.60
2019-03-30T16:04:18.461Z,34.26
2019-03-30T16:07:07.049Z,34.52
2019-03-30T16:10:16.327Z,35.28
2019-03-30T16:15:19.193Z,34.66
2019-03-30T16:17:47.655Z,34.55
2019-03-30T16:20:16.084Z,34.83
2019-03-30T16:23:24.490Z,35.12
2019-03-30T16:25:52.922Z,34.63
2019-03-30T16:28:40.569Z,35.49
2019-03-30T16:31:09.003Z,34.86
2019-03-30T16:33:56.576Z,35.28
2019-03-30T16:36:25.009Z,35.05
2019-03-30T16:38:53.456Z,35.37
2019-03-30T16:41:21.916Z,35.08
2019-03-30T16:44:09.741Z,34.40
2019-03-30T16:46:57.713Z,35.14
2019-03-30T16:49:27.583Z,34.42
2019-03-30T16:52:15.243Z,35.46
2019-03-30T16:54:43.670Z,35.32
2019-03-30T16:57:12.100Z,35.03
2019-03-30T17:02:15.044Z,35.62
2019-03-30T17:04:43.496Z,36.71
2019-03-30T17:07:11.923Z,37.29
2019-03-30T17:09:40.354Z,37.42
2019-03-30T17:14:43.242Z,37.56
2019-03-30T17:17:11.687Z,37.82
2019-03-30T17:19:40.148Z,38.54
2019-03-30T17:22:08.579Z,38.61
2019-03-30T17:24:37.045Z,38.78
2019-03-30T17:27:05.492Z,39.29
2019-03-30T17:29:33.899Z,39.90
2019-03-30T17:32:02.368Z,40.03
2019-03-30T17:34:30.801Z,42.94
2019-03-30T17:36:59.233Z,43.59
2019-03-30T17:39:27.683Z,43.50
2019-03-30T17:41:56.111Z,44.59
2019-03-30T17:44:24.551Z,45.34
2019-03-30T17:47:12.268Z,46.57
2019-03-30T17:49:40.705Z,46.75
2019-03-30T17:52:09.137Z,49.42
2019-03-30T17:54:39.868Z,47.97
2019-03-30T17:57:07.746Z,48.80
2019-03-30T17:59:36.243Z,49.96
2019-03-30T18:04:58.486Z,50.50
2019-03-30T18:07:46.283Z,50.29
2019-03-30T18:15:56.687Z,52.34
2019-03-30T18:21:18.968Z,53.81
2019-03-30T18:23:47.702Z,54.04
2019-03-30T18:26:36.778Z,54.74
2019-03-30T18:29:05.256Z,55.56
2019-03-30T18:32:13.614Z,55.66
2019-03-30T18:41:11.298Z,57.23
2019-03-30T18:43:39.740Z,58.21
2019-03-30T18:46:08.183Z,58.93
2019-03-30T18:48:36.637Z,58.98
2019-03-30T18:51:24.251Z,59.59
2019-03-30T18:54:32.627Z,59.90
2019-03-30T18:57:01.056Z,59.97
2019-03-30T18:59:29.495Z,60.96
2019-03-30T19:04:31.952Z,62.07
2019-03-30T19:07:20.899Z,62.57
2019-03-30T19:09:49.316Z,62.53
2019-03-30T19:12:17.742Z,62.21
2019-03-30T19:14:46.198Z,62.56
2019-03-30T19:17:14.624Z,62.87
2019-03-30T19:19:43.052Z,63.45
2019-03-30T19:22:11.513Z,63.75
2019-03-30T19:24:39.941Z,64.48
2019-03-30T19:27:08.367Z,64.42
2019-03-30T19:29:36.835Z,64.75
2019-03-30T19:32:05.267Z,65.20
2019-03-30T19:34:33.703Z,65.16
2019-03-30T19:37:02.168Z,65.08
2019-03-30T19:39:30.593Z,65.25
2019-03-30T19:41:59.020Z,65.84
2019-03-30T19:44:27.473Z,66.27
2019-03-30T19:46:55.906Z,66.19
2019-03-30T19:49:24.332Z,66.71
2019-03-30T19:54:26.372Z,66.45
2019-03-30T19:56:54.808Z,66.68
2019-03-30T19:59:23.273Z,67.73
2019-03-30T20:01:51.699Z,67.33
2019-03-30T20:07:28.549Z,68.29
2019-03-30T20:09:56.979Z,68.53
2019-03-30T20:12:25.554Z,68.67
2019-03-30T20:14:55.586Z,68.33
2019-03-30T20:17:24.008Z,68.78
2019-03-30T20:20:11.665Z,69.15
2019-03-30T20:22:40.092Z,69.30
2019-03-30T20:25:48.467Z,69.31
2019-03-30T20:28:36.207Z,70.12
2019-03-30T20:31:23.987Z,70.65
2019-03-30T20:33:52.417Z,70.73
2019-03-30T20:36:20.847Z,70.02
2019-03-30T20:38:49.300Z,70.32
2019-03-30T20:41:17.729Z,70.22
2019-03-30T20:43:46.156Z,70.49
2019-03-30T20:46:14.609Z,70.91
2019-03-30T20:48:43.033Z,71.53
2019-03-30T20:51:11.465Z,71.61
2019-03-30T20:56:33.166Z,72.55
2019-03-30T20:59:01.629Z,72.54
2019-03-30T21:01:30.072Z,72.78
2019-03-30T21:03:58.482Z,73.36
2019-03-30T21:06:26.940Z,72.95
2019-03-30T21:08:55.365Z,73.67
2019-03-30T21:11:23.793Z,73.87
2019-03-30T21:13:52.247Z,74.09
2019-03-30T21:16:20.675Z,74.76
2019-03-30T21:18:49.206Z,73.62
2019-03-30T21:23:51.772Z,73.99
2019-03-30T21:26:20.195Z,74.57
2019-03-30T21:28:48.649Z,74.72
2019-03-30T21:31:17.070Z,74.78
2019-03-30T21:33:45.522Z,75.59
2019-03-30T21:36:13.966Z,76.03
2019-03-30T21:38:42.389Z,74.94
2019-03-30T21:41:10.819Z,75.07
2019-03-30T21:43:39.279Z,74.26
2019-03-30T21:46:07.701Z,73.91
2019-03-30T21:48:36.136Z,74.46
2019-03-30T21:51:24.195Z,74.43
2019-03-30T21:53:52.630Z,75.05
2019-03-30T21:56:21.053Z,76.08
2019-03-30T21:58:49.506Z,76.81
2019-03-30T22:01:17.956Z,76.81
2019-03-30T22:03:46.384Z,76.71
2019-03-30T22:06:14.944Z,76.21
2019-03-30T22:09:23.300Z,76.68
2019-03-30T22:14:26.182Z,77.10
2019-03-30T22:16:54.654Z,76.97
2019-03-30T22:19:23.087Z,77.45
2019-03-30T22:21:51.517Z,77.26
2019-03-30T22:24:19.983Z,77.84
2019-03-30T22:26:48.413Z,78.47
2019-03-30T22:29:16.846Z,78.55
2019-03-30T22:31:45.302Z,78.36
2019-03-30T22:34:13.735Z,77.81
2019-03-30T22:39:56.401Z,78.97
2019-03-30T22:42:24.824Z,78.79
2019-03-30T22:44:53.282Z,79.68
2019-03-30T22:47:21.756Z,79.49
2019-03-30T22:49:50.175Z,79.53
2019-03-30T22:52:20.312Z,79.05
2019-03-30T22:57:23.399Z,79.50
2019-03-30T23:00:11.001Z,79.45
2019-03-30T23:08:21.801Z,79.89
2019-03-30T23:13:43.341Z,80.95
2019-03-30T23:16:31.233Z,80.60
2019-03-30T23:18:59.662Z,80.09
2019-03-30T23:21:28.087Z,82.06
2019-03-30T23:26:30.498Z,81.44
2019-03-30T23:28:59.630Z,82.08
2019-03-30T23:31:29.100Z,81.76
2019-03-30T23:33:57.523Z,81.90
2019-03-30T23:36:26.006Z,81.92
2019-03-30T23:38:54.419Z,82.23
2019-03-30T23:41:22.846Z,82.46
2019-03-30T23:43:51.308Z,82.74
2019-03-30T23:46:38.983Z,82.83
2019-03-30T23:49:07.442Z,83.41
2019-03-30T23:51:35.860Z,82.94
2019-03-30T23:56:59.009Z,81.77
2019-03-30T23:59:27.433Z,82.69
